createdAt,value
2022-12-12T00:03:32.689Z,-2.81
2022-12-12T00:06:21.474Z,-2.58
2022-12-12T00:09:09.646Z,-2.73
2022-12-12T00:11:56.729Z,-2.88
2022-12-12T00:14:43.693Z,-2.80
2022-12-12T00:17:30.745Z,-2.67
2022-12-12T00:20:17.792Z,-2.80
2022-12-12T00:23:04.836Z,-2.65
2022-12-12T00:26:01.383Z,-2.69
2022-12-12T00:28:49.078Z,-2.76
2022-12-12T00:31:36.152Z,-2.92
2022-12-12T00:34:23.326Z,-2.91
2022-12-12T00:37:10.271Z,-2.71
2022-12-12T00:39:57.523Z,-2.77
2022-12-12T00:42:44.513Z,-2.67
2022-12-12T00:45:31.569Z,-2.70
2022-12-12T00:48:18.635Z,-2.89
2022-12-12T00:51:09.298Z,-2.89
2022-12-12T00:53:58.176Z,-2.82
2022-12-12T00:56:45.234Z,-2.94
2022-12-12T00:59:32.218Z,-2.79
2022-12-12T01:02:23.530Z,-2.92
2022-12-12T01:05:15.158Z,-2.83
2022-12-12T01:08:02.529Z,-2.92
2022-12-12T01:10:49.574Z,-2.99
2022-12-12T01:13:36.662Z,-2.98
2022-12-12T01:16:24.645Z,-2.92
2022-12-12T01:19:11.774Z,-3.01
2022-12-12T01:21:58.856Z,-2.85
2022-12-12T01:24:45.866Z,-2.84
2022-12-12T01:27:32.972Z,-2.71
2022-12-12T01:30:22.696Z,-2.77
2022-12-12T01:33:09.704Z,-2.81
2022-12-12T01:35:57.069Z,-2.98
2022-12-12T01:38:48.629Z,-2.89
2022-12-12T01:41:36.181Z,-2.73
2022-12-12T01:44:46.152Z,-2.74
2022-12-12T01:47:33.265Z,-3.03
2022-12-12T01:50:20.455Z,-2.84
2022-12-12T01:53:08.084Z,-2.85
2022-12-12T01:55:55.960Z,-2.94
2022-12-12T01:58:45.980Z,-2.87
2022-12-12T02:01:33.586Z,-3.02
2022-12-12T02:04:22.433Z,-3.07
2022-12-12T02:07:09.730Z,-3.23
2022-12-12T02:09:56.782Z,-3.10
2022-12-12T02:12:44.106Z,-2.89
2022-12-12T02:15:41.551Z,-3.16
2022-12-12T02:18:46.868Z,-3.19
2022-12-12T02:21:37.006Z,-3.21
2022-12-12T02:24:26.113Z,-3.01
2022-12-12T02:27:28.362Z,-2.88
2022-12-12T02:30:19.476Z,-3.00
2022-12-12T02:33:24.929Z,-3.00
2022-12-12T02:36:23.693Z,-3.02
2022-12-12T02:39:37.669Z,-2.85
2022-12-12T02:42:37.164Z,-3.07
2022-12-12T02:45:30.108Z,-2.94
2022-12-12T02:48:54.829Z,-3.04
2022-12-12T02:51:44.484Z,-2.87
2022-12-12T02:54:31.661Z,-3.10
2022-12-12T02:57:22.195Z,-3.28
2022-12-12T03:00:13.686Z,-3.23
2022-12-12T03:03:34.355Z,-3.27
2022-12-12T03:06:51.981Z,-3.07
2022-12-12T03:09:57.587Z,-3.05
2022-12-12T03:13:22.148Z,-3.24
2022-12-12T03:16:27.479Z,-3.12
2022-12-12T03:19:29.231Z,-3.18
2022-12-12T03:22:43.830Z,-3.17
2022-12-12T03:25:43.921Z,-3.02
2022-12-12T03:28:39.817Z,-3.16
2022-12-12T03:31:31.605Z,-3.18
2022-12-12T03:34:26.456Z,-3.24
2022-12-12T03:37:20.715Z,-3.46
2022-12-12T03:40:24.970Z,-3.43
2022-12-12T03:43:19.548Z,-3.48
2022-12-12T03:46:15.825Z,-3.21
2022-12-12T03:49:34.687Z,-3.41
2022-12-12T03:52:30.977Z,-3.34
2022-12-12T03:55:36.204Z,-3.55
2022-12-12T03:58:43.352Z,-3.46
2022-12-12T04:01:51.294Z,-3.46
2022-12-12T04:04:48.319Z,-3.51
2022-12-12T04:07:44.116Z,-3.41
2022-12-12T04:10:57.455Z,-3.26
2022-12-12T04:14:02.719Z,-3.28
2022-12-12T04:17:00.851Z,-3.34
2022-12-12T04:20:12.569Z,-3.40
2022-12-12T04:23:16.099Z,-3.50
2022-12-12T04:26:35.531Z,-3.39
2022-12-12T04:29:26.579Z,-3.55
2022-12-12T04:32:31.958Z,-3.46
2022-12-12T04:35:18.929Z,-3.33
2022-12-12T04:38:09.942Z,-3.58
2022-12-12T04:40:59.334Z,-3.25
2022-12-12T04:43:49.176Z,-3.45
2022-12-12T04:46:38.289Z,-3.46
2022-12-12T04:49:29.347Z,-3.51
2022-12-12T04:52:18.715Z,-3.64
2022-12-12T04:55:19.146Z,-3.59
2022-12-12T04:58:07.481Z,-3.61
2022-12-12T05:01:03.905Z,-3.61
2022-12-12T05:03:55.694Z,-3.60
2022-12-12T05:06:48.770Z,-3.79
2022-12-12T05:09:37.155Z,-3.69
2022-12-12T05:12:24.294Z,-3.56
2022-12-12T05:15:12.086Z,-3.89
2022-12-12T05:18:03.227Z,-3.69
2022-12-12T05:20:50.654Z,-3.76
2022-12-12T05:23:37.701Z,-3.81
2022-12-12T05:26:27.521Z,-3.74
2022-12-12T05:29:14.481Z,-3.83
2022-12-12T05:32:01.541Z,-3.82
2022-12-12T05:34:48.639Z,-3.70
2022-12-12T05:37:36.351Z,-3.88
2022-12-12T05:40:23.360Z,-3.90
2022-12-12T05:43:10.410Z,-3.80
2022-12-12T05:45:58.023Z,-3.79
2022-12-12T05:48:50.423Z,-3.68
2022-12-12T05:51:37.444Z,-3.65
2022-12-12T05:54:24.463Z,-3.58
2022-12-12T05:57:11.572Z,-3.59
2022-12-12T05:59:58.592Z,-3.61
2022-12-12T06:02:45.846Z,-3.83
2022-12-12T06:05:32.989Z,-3.59
2022-12-12T06:08:24.843Z,-3.88
2022-12-12T06:11:12.727Z,-3.94
2022-12-12T06:13:59.898Z,-3.64
2022-12-12T06:16:46.968Z,-3.75
2022-12-12T06:19:33.988Z,-3.75
2022-12-12T06:22:21.059Z,-3.61
2022-12-12T06:25:11.166Z,-3.92
2022-12-12T06:28:00.213Z,-3.69
2022-12-12T06:30:47.267Z,-3.60
2022-12-12T06:33:35.812Z,-3.80
2022-12-12T06:36:24.542Z,-3.68
2022-12-12T06:39:11.617Z,-3.94
2022-12-12T06:41:58.765Z,-3.93
2022-12-12T06:44:45.886Z,-3.87
2022-12-12T06:47:33.085Z,-3.82
2022-12-12T06:50:23.691Z,-3.92
2022-12-12T06:53:11.801Z,-3.72
2022-12-12T06:55:58.908Z,-3.90
2022-12-12T06:58:46.776Z,-3.82
2022-12-12T07:01:33.946Z,-3.84
2022-12-12T07:04:21.127Z,-3.76
2022-12-12T07:07:08.259Z,-3.69
2022-12-12T07:09:55.862Z,-3.90
2022-12-12T07:12:46.628Z,-3.96
2022-12-12T07:15:34.864Z,-3.70
2022-12-12T07:18:22.058Z,-3.72
2022-12-12T07:21:12.886Z,-3.67
2022-12-12T07:23:59.949Z,-3.73
2022-12-12T07:26:46.997Z,-3.53
2022-12-12T07:29:34.554Z,-3.74
2022-12-12T07:32:21.648Z,-3.55
2022-12-12T07:35:09.132Z,-3.45
2022-12-12T07:37:56.792Z,-3.44
2022-12-12T07:40:43.788Z,-3.53
2022-12-12T07:43:33.207Z,-3.34
2022-12-12T07:46:24.042Z,-3.49
2022-12-12T07:49:11.374Z,-3.49
2022-12-12T07:51:58.549Z,-3.50
2022-12-12T07:54:45.633Z,-3.33
2022-12-12T07:57:33.096Z,-3.44
2022-12-12T08:00:20.508Z,-3.36
2022-12-12T08:03:07.528Z,-3.58
2022-12-12T08:05:54.610Z,-3.44
2022-12-12T08:08:41.809Z,-3.29
2022-12-12T08:11:28.884Z,-3.45
2022-12-12T08:14:16.045Z,-3.44
2022-12-12T08:17:03.562Z,-3.19
2022-12-12T08:19:51.328Z,-3.34
2022-12-12T08:22:38.412Z,-3.22
2022-12-12T08:25:25.455Z,-2.99
2022-12-12T08:28:12.760Z,-2.85
2022-12-12T08:30:59.867Z,-2.79
2022-12-12T08:33:47.817Z,-2.80
2022-12-12T08:36:35.920Z,-2.81
2022-12-12T08:39:23.042Z,-3.02
2022-12-12T08:42:10.047Z,-2.91
2022-12-12T08:44:57.126Z,-2.88
2022-12-12T08:47:44.165Z,-2.87
2022-12-12T08:50:31.339Z,-2.81
2022-12-12T08:53:18.408Z,-2.69
2022-12-12T08:56:05.854Z,-2.92
2022-12-12T08:58:53.059Z,-2.90
2022-12-12T09:01:40.732Z,-2.78
2022-12-12T09:04:27.867Z,-2.57
2022-12-12T09:07:14.915Z,-2.75
2022-12-12T09:10:02.519Z,-2.57
2022-12-12T09:12:49.582Z,-2.52
2022-12-12T09:15:38.161Z,-2.89
2022-12-12T09:18:25.347Z,-2.77
2022-12-12T09:21:12.355Z,-2.65
2022-12-12T09:23:59.466Z,-2.78
2022-12-12T09:26:46.564Z,-2.76
2022-12-12T09:29:33.663Z,-2.67
2022-12-12T09:32:24.765Z,-2.77
2022-12-12T09:35:12.501Z,-2.83
2022-12-12T09:37:59.799Z,-2.55
2022-12-12T09:40:54.988Z,-2.67
2022-12-12T09:44:03.207Z,-2.71
2022-12-12T09:46:51.634Z,-2.45
2022-12-12T09:49:51.201Z,-2.67
2022-12-12T09:52:38.736Z,-2.64
2022-12-12T09:55:43.705Z,-2.57
2022-12-12T09:58:36.318Z,-2.46
2022-12-12T10:01:34.279Z,-2.33
2022-12-12T10:04:50.991Z,-2.15
2022-12-12T10:07:59.433Z,-2.07
2022-12-12T10:10:52.276Z,-2.12
2022-12-12T10:13:39.726Z,-1.98
2022-12-12T10:16:28.822Z,-2.14
2022-12-12T10:19:27.842Z,-2.11
2022-12-12T10:22:50.888Z,-1.82
2022-12-12T10:25:49.979Z,-2.14
2022-12-12T10:28:37.000Z,-2.11
2022-12-12T10:31:35.971Z,-2.13
2022-12-12T10:34:44.815Z,-2.06
2022-12-12T10:37:38.727Z,-2.13
2022-12-12T10:40:47.252Z,-2.29
2022-12-12T10:43:42.988Z,-2.13
2022-12-12T10:46:58.989Z,-1.76
2022-12-12T10:49:46.091Z,-2.00
2022-12-12T10:52:33.731Z,-2.05
2022-12-12T10:55:44.029Z,-1.99
2022-12-12T10:58:40.700Z,-2.11
2022-12-12T11:02:08.599Z,-2.09
2022-12-12T11:04:45.628Z,-1.99
2022-12-12T11:07:40.892Z,-1.81
2022-12-12T11:10:34.823Z,-1.86
2022-12-12T11:13:21.965Z,-1.81
2022-12-12T11:16:15.637Z,-1.57
2022-12-12T11:19:16.987Z,-1.57
2022-12-12T11:22:04.942Z,-1.83
2022-12-12T11:24:53.116Z,-1.79
2022-12-12T11:27:41.651Z,-1.95
2022-12-12T11:30:43.019Z,-1.97
2022-12-12T11:33:38.442Z,-1.91
2022-12-12T11:36:36.208Z,-1.86
2022-12-12T11:39:28.905Z,-1.74
2022-12-12T11:42:15.916Z,-1.75
2022-12-12T11:45:09.024Z,-1.95
2022-12-12T11:47:56.047Z,-1.99
2022-12-12T11:50:46.637Z,-1.85
2022-12-12T11:53:38.540Z,-1.86
2022-12-12T11:56:44.230Z,-1.81
2022-12-12T11:59:46.166Z,-2.02
2022-12-12T12:03:07.205Z,-2.02
2022-12-12T12:06:15.675Z,-1.83
2022-12-12T12:09:02.767Z,-2.04
2022-12-12T12:12:37.327Z,-1.98
2022-12-12T12:16:01.840Z,-1.91
2022-12-12T12:18:58.563Z,-1.94
2022-12-12T12:22:13.246Z,-1.93
2022-12-12T12:25:21.629Z,-1.86
2022-12-12T12:28:23.857Z,-2.01
2022-12-12T12:31:20.307Z,-2.04
2022-12-12T12:34:30.417Z,-1.92
2022-12-12T12:37:51.920Z,-2.04
2022-12-12T12:40:41.599Z,-2.01
2022-12-12T12:43:47.931Z,-1.78
2022-12-12T12:46:58.493Z,-2.03
2022-12-12T12:50:02.008Z,-2.01
2022-12-12T12:52:57.201Z,-1.93
2022-12-12T12:55:51.107Z,-1.97
2022-12-12T12:58:44.929Z,-1.74
2022-12-12T13:01:42.796Z,-1.64
2022-12-12T13:04:37.211Z,-1.66
2022-12-12T13:07:48.432Z,-1.54
2022-12-12T13:10:41.129Z,-1.64
2022-12-12T13:13:34.500Z,-1.64
2022-12-12T13:16:26.340Z,-1.46
2022-12-12T13:19:31.715Z,-1.47
2022-12-12T13:22:30.273Z,-1.44
2022-12-12T13:25:28.876Z,-1.66
2022-12-12T13:28:20.248Z,-1.55
2022-12-12T13:31:27.311Z,-1.65
2022-12-12T13:34:23.361Z,-1.80
2022-12-12T13:37:17.424Z,-1.98
2022-12-12T13:40:08.147Z,-1.71
2022-12-12T13:42:55.180Z,-1.83
2022-12-12T13:45:44.482Z,-1.81
2022-12-12T13:48:46.567Z,-1.59
2022-12-12T13:51:40.835Z,-1.53
2022-12-12T13:54:27.972Z,-1.51
2022-12-12T13:57:26.162Z,-1.69
2022-12-12T14:00:18.094Z,-1.44
2022-12-12T14:03:10.921Z,-1.40
2022-12-12T14:06:10.815Z,-1.59
2022-12-12T14:08:58.768Z,-1.73
2022-12-12T14:11:46.017Z,-1.53
2022-12-12T14:14:36.745Z,-1.74
2022-12-12T14:17:26.914Z,-1.74
2022-12-12T14:20:31.603Z,-1.63
2022-12-12T14:23:29.220Z,-1.73
2022-12-12T14:26:28.724Z,-1.83
2022-12-12T14:29:15.777Z,-1.91
2022-12-12T14:32:06.143Z,-1.76
2022-12-12T14:35:09.460Z,-1.61
2022-12-12T14:38:18.019Z,-1.81
2022-12-12T14:41:13.518Z,-1.74
2022-12-12T14:44:35.640Z,-1.89
2022-12-12T14:47:16.417Z,-1.97
2022-12-12T14:50:11.312Z,-1.98
2022-12-12T14:52:59.010Z,-2.16
2022-12-12T14:55:52.721Z,-2.26
2022-12-12T14:58:56.548Z,-2.16
2022-12-12T15:01:53.633Z,-2.38
2022-12-12T15:04:44.438Z,-2.55
2022-12-12T15:07:39.147Z,-2.44
2022-12-12T15:10:30.937Z,-2.40
2022-12-12T15:13:21.285Z,-2.46
2022-12-12T15:16:08.539Z,-2.70
2022-12-12T15:18:57.496Z,-2.78
2022-12-12T15:21:46.301Z,-2.88
2022-12-12T15:24:38.461Z,-2.79
2022-12-12T15:27:34.093Z,-2.82
2022-12-12T15:30:37.612Z,-2.86
2022-12-12T15:33:26.955Z,-3.05
2022-12-12T15:36:28.055Z,-2.75
2022-12-12T15:39:17.135Z,-2.75
2022-12-12T15:42:05.193Z,-3.01
2022-12-12T15:44:52.450Z,-2.86
2022-12-12T15:47:39.573Z,-3.03
2022-12-12T15:50:41.778Z,-2.74
2022-12-12T15:53:50.344Z,-2.90
2022-12-12T15:56:37.388Z,-2.95
2022-12-12T15:59:32.460Z,-2.93
2022-12-12T16:02:26.256Z,-2.87
2022-12-12T16:05:19.386Z,-2.92
2022-12-12T16:08:32.203Z,-2.78
2022-12-12T16:11:38.296Z,-2.88
2022-12-12T16:14:27.239Z,-2.85
2022-12-12T16:17:22.137Z,-2.94
2022-12-12T16:20:14.659Z,-2.96
2022-12-12T16:23:28.388Z,-2.85
2022-12-12T16:26:15.371Z,-3.07
2022-12-12T16:29:04.060Z,-3.00
2022-12-12T16:31:51.749Z,-2.95
2022-12-12T16:34:38.793Z,-2.88
2022-12-12T16:37:25.842Z,-2.95
2022-12-12T16:40:15.031Z,-2.97
2022-12-12T16:43:09.363Z,-2.97
2022-12-12T16:45:58.458Z,-2.89
2022-12-12T16:48:45.675Z,-3.06
2022-12-12T16:51:35.305Z,-3.02
2022-12-12T16:54:22.475Z,-2.94
2022-12-12T16:57:09.621Z,-3.15
2022-12-12T16:59:56.747Z,-3.07
2022-12-12T17:02:44.413Z,-2.82
2022-12-12T17:05:32.637Z,-2.93
2022-12-12T17:08:19.913Z,-2.86
2022-12-12T17:11:09.501Z,-2.93
2022-12-12T17:13:57.914Z,-2.89
2022-12-12T17:16:45.092Z,-2.91
2022-12-12T17:19:32.716Z,-2.91
2022-12-12T17:22:19.804Z,-3.13
2022-12-12T17:25:08.425Z,-2.93
2022-12-12T17:27:55.623Z,-3.04
2022-12-12T17:30:43.423Z,-2.99
2022-12-12T17:33:30.660Z,-3.29
2022-12-12T17:36:18.801Z,-3.26
2022-12-12T17:39:06.001Z,-3.12
2022-12-12T17:41:53.368Z,-3.18
2022-12-12T17:44:40.480Z,-3.28
2022-12-12T17:47:30.371Z,-3.41
2022-12-12T17:50:17.996Z,-3.36
2022-12-12T17:53:05.234Z,-3.24
2022-12-12T17:56:01.260Z,-3.25
2022-12-12T17:58:55.804Z,-3.34
2022-12-12T18:01:43.323Z,-3.30
2022-12-12T18:04:37.138Z,-3.32
2022-12-12T18:07:24.761Z,-3.41
2022-12-12T18:10:12.658Z,-3.48
2022-12-12T18:13:01.599Z,-3.59
2022-12-12T18:15:59.703Z,-3.62
2022-12-12T18:18:47.308Z,-3.63
2022-12-12T18:22:00.418Z,-3.81
2022-12-12T18:24:48.574Z,-3.72
2022-12-12T18:27:38.159Z,-3.94
2022-12-12T18:30:25.885Z,-3.84
2022-12-12T18:33:13.483Z,-4.17
2022-12-12T18:36:10.108Z,-3.94
2022-12-12T18:38:59.844Z,-3.95
2022-12-12T18:41:47.298Z,-3.86
2022-12-12T18:44:34.710Z,-3.84
2022-12-12T18:47:24.398Z,-3.86
2022-12-12T18:50:12.482Z,-3.78
2022-12-12T18:53:00.877Z,-3.76
2022-12-12T18:55:48.229Z,-3.79
2022-12-12T18:58:37.002Z,-3.69
2022-12-12T19:01:27.423Z,-3.79
2022-12-12T19:04:21.194Z,-3.72
2022-12-12T19:07:12.276Z,-3.73
2022-12-12T19:10:02.876Z,-3.70
2022-12-12T19:12:50.808Z,-3.68
2022-12-12T19:15:38.837Z,-3.70
2022-12-12T19:18:26.251Z,-3.66
2022-12-12T19:21:20.362Z,-3.62
2022-12-12T19:24:10.858Z,-3.72
2022-12-12T19:26:58.407Z,-3.72
2022-12-12T19:29:49.170Z,-3.69
2022-12-12T19:32:37.000Z,-3.65
2022-12-12T19:35:25.167Z,-3.69
2022-12-12T19:38:13.090Z,-3.69
2022-12-12T19:41:07.949Z,-3.73
2022-12-12T19:44:00.161Z,-3.75
2022-12-12T19:46:48.221Z,-3.86
2022-12-12T19:49:36.226Z,-3.78
2022-12-12T19:52:24.293Z,-3.93
2022-12-12T19:55:12.087Z,-3.97
2022-12-12T19:58:01.059Z,-3.89
2022-12-12T20:00:51.148Z,-3.91
2022-12-12T20:03:39.178Z,-4.07
2022-12-12T20:06:28.995Z,-4.06
2022-12-12T20:09:23.179Z,-4.10
2022-12-12T20:12:11.269Z,-4.24
2022-12-12T20:15:00.833Z,-4.27
2022-12-12T20:17:48.779Z,-4.30
2022-12-12T20:20:36.071Z,-4.34
2022-12-12T20:23:24.097Z,-4.47
2022-12-12T20:26:17.638Z,-4.36
2022-12-12T20:29:07.428Z,-4.42
2022-12-12T20:31:55.371Z,-4.54
2022-12-12T20:34:43.315Z,-4.52
2022-12-12T20:37:32.440Z,-4.57
2022-12-12T20:40:20.259Z,-4.55
2022-12-12T20:43:10.642Z,-4.62
2022-12-12T20:46:02.662Z,-4.63
2022-12-12T20:48:51.288Z,-4.62
2022-12-12T20:51:55.205Z,-4.63
2022-12-12T20:54:44.179Z,-4.74
2022-12-12T20:57:32.962Z,-4.68
2022-12-12T21:00:20.899Z,-4.64
2022-12-12T21:03:08.358Z,-4.65
2022-12-12T21:05:55.478Z,-4.75
2022-12-12T21:08:42.863Z,-4.80
2022-12-12T21:11:30.593Z,-4.69
2022-12-12T21:14:18.568Z,-4.76
2022-12-12T21:17:06.037Z,-4.70
2022-12-12T21:19:53.346Z,-4.85
2022-12-12T21:22:40.534Z,-4.76
2022-12-12T21:25:27.740Z,-4.74
2022-12-12T21:28:14.914Z,-4.79
2022-12-12T21:31:02.008Z,-5.16
2022-12-12T21:33:49.154Z,-5.14
2022-12-12T21:36:36.319Z,-5.07
2022-12-12T21:39:26.880Z,-5.23
2022-12-12T21:42:14.433Z,-5.16
2022-12-12T21:45:01.471Z,-5.46
2022-12-12T21:47:48.542Z,-5.42
2022-12-12T21:50:37.622Z,-5.57
2022-12-12T21:53:37.892Z,-5.56
2022-12-12T21:56:24.960Z,-5.62
2022-12-12T21:59:13.538Z,-5.72
2022-12-12T22:02:00.930Z,-5.83
2022-12-12T22:04:48.119Z,-5.75
2022-12-12T22:07:35.317Z,-5.71
2022-12-12T22:10:22.411Z,-5.85
2022-12-12T22:13:09.452Z,-5.82
2022-12-12T22:16:01.245Z,-5.83
2022-12-12T22:18:50.363Z,-5.97
2022-12-12T22:21:37.693Z,-6.05
2022-12-12T22:24:26.121Z,-6.08
2022-12-12T22:27:13.207Z,-6.23
2022-12-12T22:30:00.227Z,-6.27
2022-12-12T22:32:47.274Z,-6.29
2022-12-12T22:35:34.364Z,-6.29
2022-12-12T22:38:21.438Z,-6.44
2022-12-12T22:41:08.758Z,-6.29
2022-12-12T22:44:00.924Z,-6.30
2022-12-12T22:46:49.992Z,-6.41
2022-12-12T22:49:37.126Z,-6.48
2022-12-12T22:52:25.577Z,-6.62
2022-12-12T22:55:12.888Z,-6.53
2022-12-12T22:58:00.202Z,-6.54
2022-12-12T23:00:47.331Z,-6.62
2022-12-12T23:03:34.637Z,-6.76
2022-12-12T23:06:32.986Z,-6.57
2022-12-12T23:09:22.700Z,-6.65
2022-12-12T23:12:09.771Z,-6.70
2022-12-12T23:14:56.838Z,-6.81
2022-12-12T23:17:43.906Z,-6.75
2022-12-12T23:20:31.002Z,-6.91
2022-12-12T23:23:18.038Z,-6.84
2022-12-12T23:26:10.429Z,-6.71
2022-12-12T23:28:59.242Z,-6.83
2022-12-12T23:31:47.259Z,-6.88
2022-12-12T23:34:34.709Z,-6.94
2022-12-12T23:37:22.040Z,-7.00
2022-12-12T23:40:09.973Z,-7.03
2022-12-12T23:42:57.040Z,-7.00
2022-12-12T23:45:44.318Z,-7.11
2022-12-12T23:48:32.332Z,-7.25
2022-12-12T23:51:19.370Z,-7.26
2022-12-12T23:54:09.971Z,-7.28
2022-12-12T23:56:57.043Z,-7.37
2022-12-12T23:59:44.134Z,-7.34
